createdAt,value
2018-06-09T00:00:05.156Z,0.00
2018-06-09T00:01:05.155Z,0.00
2018-06-09T00:02:05.155Z,0.00
2018-06-09T00:03:05.154Z,0.00
2018-06-09T00:04:05.144Z,0.00
2018-06-09T00:05:05.142Z,0.00
2018-06-09T00:06:05.138Z,0.00
2018-06-09T00:07:05.137Z,0.00
2018-06-09T00:08:05.134Z,0.00
2018-06-09T00:09:05.128Z,0.00
2018-06-09T00:10:05.124Z,0.00
2018-06-09T00:11:05.119Z,0.00
2018-06-09T00:12:05.118Z,0.00
2018-06-09T00:13:05.108Z,0.00
2018-06-09T00:14:05.173Z,0.00
2018-06-09T00:15:05.108Z,0.00
2018-06-09T00:16:05.103Z,0.00
2018-06-09T00:17:05.099Z,0.00
2018-06-09T00:18:05.101Z,0.00
2018-06-09T00:19:05.094Z,0.00
2018-06-09T00:20:05.091Z,0.00
2018-06-09T00:21:05.085Z,0.00
2018-06-09T00:22:05.084Z,0.00
2018-06-09T00:23:05.079Z,0.00
2018-06-09T00:24:05.127Z,0.00
2018-06-09T00:25:05.134Z,0.00
2018-06-09T00:26:05.138Z,0.00
2018-06-09T00:27:05.145Z,0.00
2018-06-09T00:28:05.152Z,0.00
2018-06-09T00:29:05.068Z,0.00
2018-06-09T00:30:05.058Z,0.00
2018-06-09T00:31:05.053Z,0.00
2018-06-09T00:32:05.051Z,0.00
2018-06-09T00:33:05.043Z,0.00
2018-06-09T00:34:05.041Z,0.00
2018-06-09T00:35:05.044Z,0.00
2018-06-09T00:36:05.033Z,0.00
2018-06-09T00:37:05.032Z,0.00
2018-06-09T00:38:05.029Z,0.00
2018-06-09T00:39:05.022Z,0.00
2018-06-09T00:40:05.026Z,0.00
2018-06-09T00:41:05.016Z,0.00
2018-06-09T00:42:05.013Z,0.00
2018-06-09T00:43:05.010Z,0.00
2018-06-09T00:44:05.003Z,0.00
2018-06-09T00:45:05.005Z,0.00
2018-06-09T00:46:04.998Z,0.00
2018-06-09T00:47:04.997Z,0.00
2018-06-09T00:48:04.994Z,0.00
2018-06-09T00:49:04.992Z,0.00
2018-06-09T00:50:04.989Z,0.00
2018-06-09T00:51:04.984Z,0.00
2018-06-09T00:52:04.969Z,0.00
2018-06-09T00:53:04.975Z,0.00
2018-06-09T00:54:04.976Z,0.00
2018-06-09T00:55:04.965Z,0.00
2018-06-09T00:56:04.970Z,0.00
2018-06-09T00:57:04.965Z,0.00
2018-06-09T00:58:04.963Z,0.00
2018-06-09T00:59:04.958Z,0.00
2018-06-09T01:00:04.961Z,0.00
2018-06-09T01:01:04.946Z,0.00
2018-06-09T01:02:04.949Z,0.00
2018-06-09T01:03:04.944Z,0.00
2018-06-09T01:04:04.943Z,0.00
2018-06-09T01:05:04.941Z,0.00
2018-06-09T01:06:04.933Z,0.00
2018-06-09T01:07:04.930Z,0.00
2018-06-09T01:08:04.933Z,0.00
2018-06-09T01:09:04.925Z,0.00
2018-06-09T01:10:04.921Z,0.00
2018-06-09T01:11:04.919Z,0.00
2018-06-09T01:12:04.916Z,0.00
2018-06-09T01:13:04.913Z,0.00
2018-06-09T01:14:04.907Z,0.00
2018-06-09T01:15:04.900Z,0.00
2018-06-09T01:16:04.902Z,0.00
2018-06-09T01:17:04.900Z,0.00
2018-06-09T01:18:04.907Z,0.00
2018-06-09T01:19:04.895Z,0.00
2018-06-09T01:20:04.889Z,0.00
2018-06-09T01:21:04.888Z,0.00
2018-06-09T01:22:04.880Z,0.00
2018-06-09T01:23:04.872Z,0.00
2018-06-09T01:24:04.874Z,0.00
2018-06-09T01:25:04.872Z,0.00
2018-06-09T01:26:04.868Z,0.00
2018-06-09T01:27:04.865Z,0.00
2018-06-09T01:28:04.862Z,0.00
2018-06-09T01:29:04.861Z,0.00
2018-06-09T01:30:04.861Z,0.00
2018-06-09T01:31:04.860Z,0.00
2018-06-09T02:04:15.871Z,0.00
2018-06-09T02:05:15.842Z,0.00
2018-06-09T02:07:08.727Z,0.00
2018-06-09T02:08:08.701Z,0.00
2018-06-09T02:10:01.598Z,0.00
2018-06-09T02:11:01.582Z,0.00
2018-06-09T02:12:54.489Z,0.00
2018-06-09T02:13:54.459Z,0.00
2018-06-09T02:15:47.401Z,0.00
2018-06-09T02:16:47.385Z,0.00
2018-06-09T02:18:40.307Z,0.00
2018-06-09T02:19:40.280Z,0.00
2018-06-09T02:21:33.231Z,0.00
2018-06-09T02:22:33.214Z,0.00
2018-06-09T02:24:26.256Z,0.00
2018-06-09T02:25:26.230Z,0.00
2018-06-09T02:27:19.190Z,0.00
2018-06-09T02:28:19.174Z,0.00
2018-06-09T02:30:12.192Z,0.00
2018-06-09T02:31:12.185Z,0.00
2018-06-09T02:33:05.227Z,0.00
2018-06-09T02:34:05.202Z,0.00
2018-06-09T02:35:58.099Z,0.00
2018-06-09T02:36:58.094Z,0.00
2018-06-09T02:38:51.015Z,0.00
2018-06-09T02:39:50.993Z,0.00
2018-06-09T02:41:44.010Z,0.00
2018-06-09T02:42:43.996Z,0.00
2018-06-09T02:44:36.925Z,0.00
2018-06-09T02:45:36.891Z,0.00
2018-06-09T02:47:29.938Z,0.00
2018-06-09T02:48:29.913Z,0.00
2018-06-09T02:50:22.810Z,0.00
2018-06-09T02:51:22.798Z,0.00
2018-06-09T02:53:15.805Z,0.00
2018-06-09T02:54:15.772Z,0.00
2018-06-09T02:56:08.709Z,0.00
2018-06-09T02:57:08.701Z,0.00
2018-06-09T02:59:01.651Z,0.00
2018-06-09T03:00:01.626Z,0.00
2018-06-09T03:01:54.516Z,0.00
2018-06-09T03:02:54.504Z,0.00
2018-06-09T03:04:47.458Z,0.00
2018-06-09T03:05:47.435Z,0.00
2018-06-09T03:07:40.342Z,0.00
2018-06-09T03:08:40.317Z,0.00
2018-06-09T03:10:33.297Z,0.00
2018-06-09T03:11:33.290Z,0.00
2018-06-09T03:13:26.251Z,0.00
2018-06-09T03:14:26.227Z,0.00
2018-06-09T03:15:26.226Z,0.00
2018-06-09T03:16:26.225Z,0.00
2018-06-09T03:17:26.220Z,0.00
2018-06-09T03:18:26.211Z,0.00
2018-06-09T03:19:26.217Z,0.00
2018-06-09T03:20:26.211Z,0.00
2018-06-09T03:21:26.250Z,0.00
2018-06-09T03:22:26.207Z,0.00
2018-06-09T03:23:26.196Z,0.00
2018-06-09T03:24:26.194Z,0.00
2018-06-09T03:25:26.187Z,0.00
2018-06-09T03:26:26.187Z,0.00
2018-06-09T03:27:26.182Z,0.00
2018-06-09T03:28:26.180Z,0.00
2018-06-09T03:29:26.182Z,0.00
2018-06-09T03:30:26.175Z,0.00
2018-06-09T03:31:26.172Z,0.00
2018-06-09T03:32:26.167Z,0.00
2018-06-09T03:33:26.164Z,0.00
2018-06-09T03:34:26.161Z,0.00
2018-06-09T03:35:26.161Z,0.00
2018-06-09T03:36:26.160Z,0.00
2018-06-09T03:37:26.148Z,0.00
2018-06-09T03:38:26.154Z,0.00
2018-06-09T03:39:26.148Z,0.00
2018-06-09T03:40:26.144Z,0.00
2018-06-09T03:41:26.138Z,0.00
2018-06-09T03:42:26.138Z,0.00
2018-06-09T03:43:26.187Z,0.00
2018-06-09T03:44:26.142Z,0.00
2018-06-09T03:45:26.129Z,0.00
2018-06-09T03:46:26.135Z,0.00
2018-06-09T03:47:26.122Z,0.00
2018-06-09T03:48:26.119Z,0.00
2018-06-09T03:49:26.111Z,0.00
2018-06-09T03:50:26.115Z,0.00
2018-06-09T03:51:26.106Z,0.00
2018-06-09T03:52:26.108Z,0.00
2018-06-09T03:53:26.100Z,0.00
2018-06-09T03:54:26.086Z,0.00
2018-06-09T03:55:26.092Z,0.00
2018-06-09T03:56:26.093Z,0.00
2018-06-09T03:57:26.092Z,0.00
2018-06-09T03:58:26.086Z,0.00
2018-06-09T03:59:26.075Z,0.00
2018-06-09T04:00:26.079Z,0.00
2018-06-09T04:01:26.074Z,0.00
2018-06-09T04:02:26.074Z,0.00
2018-06-09T04:03:26.074Z,0.00
2018-06-09T04:04:26.065Z,0.00
2018-06-09T04:05:26.067Z,0.00
2018-06-09T04:06:26.064Z,0.00
2018-06-09T04:07:26.065Z,0.00
2018-06-09T04:08:26.051Z,0.00
2018-06-09T04:09:26.055Z,0.00
2018-06-09T04:10:26.044Z,0.00
2018-06-09T04:11:26.045Z,0.00
2018-06-09T04:12:26.041Z,0.00
2018-06-09T04:13:26.035Z,0.00
2018-06-09T04:14:26.035Z,0.00
2018-06-09T04:15:26.028Z,0.00
2018-06-09T04:16:26.027Z,0.00
2018-06-09T04:17:26.023Z,0.00
2018-06-09T04:18:26.020Z,0.00
2018-06-09T04:19:26.016Z,0.00
2018-06-09T04:20:26.017Z,0.00
2018-06-09T04:21:26.012Z,0.00
2018-06-09T04:22:26.009Z,0.00
2018-06-09T04:23:25.996Z,0.00
2018-06-09T04:24:26.008Z,0.00
2018-06-09T04:25:26.000Z,0.00
2018-06-09T04:26:25.999Z,0.00
2018-06-09T04:27:26.000Z,0.00
2018-06-09T04:28:26.059Z,0.00
2018-06-09T04:29:25.986Z,0.00
2018-06-09T04:30:25.985Z,0.00
2018-06-09T04:31:25.987Z,0.00
2018-06-09T04:32:25.979Z,0.00
2018-06-09T04:33:25.976Z,0.00
2018-06-09T04:34:25.975Z,0.00
2018-06-09T04:35:25.975Z,0.00
2018-06-09T04:36:25.969Z,0.00
2018-06-09T04:37:25.962Z,0.00
2018-06-09T04:38:25.972Z,0.00
2018-06-09T04:39:25.961Z,0.00
2018-06-09T04:40:25.962Z,0.00
2018-06-09T04:41:25.955Z,0.00
2018-06-09T04:42:25.952Z,0.00
2018-06-09T04:43:25.950Z,0.00
2018-06-09T04:44:25.951Z,0.00
2018-06-09T04:45:25.973Z,0.00
2018-06-09T04:46:25.948Z,0.00
2018-06-09T04:47:25.946Z,0.00
2018-06-09T04:48:25.938Z,0.00
2018-06-09T04:49:25.934Z,0.00
2018-06-09T04:50:25.924Z,0.00
2018-06-09T04:51:25.933Z,0.00
2018-06-09T04:52:25.939Z,0.00
2018-06-09T04:53:25.927Z,0.00
2018-06-09T04:54:25.932Z,0.00
2018-06-09T04:55:25.924Z,0.00
2018-06-09T04:56:25.917Z,0.00
2018-06-09T04:57:25.924Z,0.00
2018-06-09T04:58:25.933Z,0.00
2018-06-09T04:59:25.920Z,0.00
2018-06-09T05:00:25.913Z,0.00
2018-06-09T05:01:25.913Z,0.00
2018-06-09T05:02:25.909Z,0.00
2018-06-09T05:03:25.906Z,0.00
2018-06-09T05:04:25.906Z,0.00
2018-06-09T05:05:25.901Z,0.00
2018-06-09T05:06:25.900Z,0.00
2018-06-09T05:07:25.897Z,0.00
2018-06-09T05:08:25.894Z,0.00
2018-06-09T05:09:25.894Z,0.00
2018-06-09T05:10:25.900Z,0.00
2018-06-09T05:11:25.885Z,0.00
2018-06-09T05:12:25.887Z,0.00
2018-06-09T05:13:25.883Z,0.00
2018-06-09T05:14:25.887Z,0.00
2018-06-09T05:15:25.880Z,0.00
2018-06-09T05:16:25.883Z,0.00
2018-06-09T05:17:25.875Z,0.00
2018-06-09T05:18:25.884Z,0.00
2018-06-09T05:19:25.872Z,0.00
2018-06-09T05:20:25.874Z,0.00
2018-06-09T05:21:25.868Z,0.00
2018-06-09T05:22:25.863Z,0.00
2018-06-09T05:23:25.861Z,0.00
2018-06-09T05:24:25.861Z,0.00
2018-06-09T05:25:25.858Z,0.00
2018-06-09T05:26:25.850Z,0.00
2018-06-09T05:27:25.854Z,0.00
2018-06-09T05:28:25.857Z,0.00
2018-06-09T05:29:25.851Z,0.00
2018-06-09T05:30:25.851Z,0.00
2018-06-09T05:31:25.844Z,0.00
2018-06-09T05:32:25.849Z,1.82
2018-06-09T05:33:25.840Z,3.64
2018-06-09T05:34:25.836Z,4.79
2018-06-09T05:35:25.833Z,6.23
2018-06-09T05:36:25.835Z,7.86
2018-06-09T05:37:25.833Z,9.40
2018-06-09T05:38:25.831Z,12.85
2018-06-09T05:39:25.832Z,17.76
2018-06-09T05:40:25.824Z,22.36
2018-06-09T05:41:25.821Z,25.35
2018-06-09T05:42:25.823Z,29.94
2018-06-09T05:43:25.823Z,33.32
2018-06-09T05:44:25.820Z,35.63
2018-06-09T05:45:25.823Z,39.20
2018-06-09T05:46:25.818Z,44.29
2018-06-09T05:47:25.810Z,49.10
2018-06-09T05:48:25.813Z,47.75
2018-06-09T05:49:25.821Z,47.66
2018-06-09T05:50:25.813Z,51.88
2018-06-09T05:51:25.804Z,51.21
2018-06-09T05:52:25.809Z,52.26
2018-06-09T05:53:25.811Z,52.65
2018-06-09T05:54:25.810Z,54.09
2018-06-09T05:55:25.802Z,57.65
2018-06-09T05:56:25.820Z,53.23
2018-06-09T05:57:25.819Z,53.52
2018-06-09T05:58:25.795Z,56.43
2018-06-09T05:59:25.808Z,56.21
2018-06-09T06:00:25.806Z,56.11
2018-06-09T06:01:25.806Z,58.54
2018-06-09T06:02:25.807Z,58.35
2018-06-09T06:03:25.807Z,55.37
2018-06-09T06:04:25.809Z,58.54
2018-06-09T06:05:25.809Z,60.66
2018-06-09T06:06:25.830Z,63.09
2018-06-09T06:07:25.810Z,67.51
2018-06-09T06:08:25.860Z,69.92
2018-06-09T06:09:25.809Z,66.71
2018-06-09T06:10:25.808Z,63.25
2018-06-09T06:11:25.810Z,63.67
2018-06-09T06:12:26.683Z,61.65
2018-06-09T06:13:25.817Z,65.59
2018-06-09T06:14:25.815Z,71.17
2018-06-09T06:15:25.818Z,72.03
2018-06-09T06:16:25.814Z,78.86
2018-06-09T06:17:25.815Z,75.40
2018-06-09T06:18:25.820Z,78.90
2018-06-09T06:19:25.820Z,81.30
2018-06-09T06:20:25.823Z,79.28
2018-06-09T06:21:25.839Z,83.72
2018-06-09T06:22:25.824Z,84.58
2018-06-09T06:23:25.823Z,79.19
2018-06-09T06:24:25.827Z,82.50
2018-06-09T06:25:25.827Z,85.87
2018-06-09T06:26:25.830Z,91.94
2018-06-09T06:27:25.831Z,91.65
2018-06-09T06:28:25.837Z,92.47
2018-06-09T06:29:25.838Z,90.06
2018-06-09T06:30:25.840Z,85.40
2018-06-09T06:31:25.839Z,86.51
2018-06-09T06:32:25.841Z,79.38
2018-06-09T06:33:25.846Z,80.73
2018-06-09T06:34:25.847Z,82.65
2018-06-09T06:35:25.850Z,81.30
2018-06-09T06:36:25.865Z,85.35
2018-06-09T06:37:25.848Z,84.23
2018-06-09T06:38:25.857Z,85.68
2018-06-09T06:39:25.861Z,90.01
2018-06-09T06:40:25.869Z,95.45
2018-06-09T06:41:25.868Z,99.99
2018-06-09T06:42:25.867Z,99.74
2018-06-09T06:43:25.871Z,99.99
2018-06-09T06:44:25.873Z,99.99
2018-06-09T06:45:25.886Z,99.99
2018-06-09T06:46:25.880Z,99.99
2018-06-09T06:47:25.878Z,99.99
2018-06-09T06:48:25.879Z,99.99
2018-06-09T06:49:25.887Z,99.99
2018-06-09T06:50:25.886Z,99.99
2018-06-09T06:51:25.895Z,99.99
2018-06-09T06:52:25.894Z,99.99
2018-06-09T06:53:25.903Z,99.99
2018-06-09T06:54:25.901Z,99.99
2018-06-09T06:55:25.908Z,99.99
2018-06-09T06:56:25.912Z,99.99
2018-06-09T06:57:25.915Z,99.99
2018-06-09T06:58:25.913Z,99.99
2018-06-09T06:59:25.922Z,99.99
2018-06-09T07:00:25.926Z,99.99
2018-06-09T07:01:25.928Z,99.99
2018-06-09T07:02:25.934Z,99.99
2018-06-09T07:03:25.950Z,99.99
2018-06-09T07:04:25.945Z,99.99
2018-06-09T07:05:25.946Z,99.99
2018-06-09T07:06:25.953Z,99.99
2018-06-09T07:07:25.957Z,99.99
2018-06-09T07:08:25.963Z,99.99
2018-06-09T07:09:25.971Z,99.99
2018-06-09T07:10:25.969Z,99.99
2018-06-09T07:11:25.976Z,99.99
2018-06-09T07:12:26.010Z,99.99
2018-06-09T07:13:26.050Z,99.99
2018-06-09T07:14:26.002Z,99.99
2018-06-09T07:15:26.099Z,99.99
2018-06-09T07:16:26.006Z,99.99
2018-06-09T07:17:25.995Z,99.99
2018-06-09T07:18:26.014Z,99.99
2018-06-09T07:19:26.018Z,99.55
2018-06-09T07:20:26.027Z,98.05
2018-06-09T07:21:26.027Z,96.80
2018-06-09T07:22:26.039Z,93.65
2018-06-09T07:23:26.039Z,91.61
2018-06-09T07:24:26.049Z,89.28
2018-06-09T07:25:26.063Z,91.90
2018-06-09T07:26:26.073Z,93.12
2018-06-09T07:27:26.069Z,92.93
2018-06-09T07:28:26.075Z,93.60
2018-06-09T07:29:26.087Z,90.92
2018-06-09T07:30:26.089Z,88.88
2018-06-09T07:31:26.112Z,89.76
2018-06-09T07:32:26.110Z,87.72
2018-06-09T07:33:26.116Z,88.06
2018-06-09T07:34:26.126Z,88.79
2018-06-09T07:35:26.134Z,90.01
2018-06-09T07:36:26.144Z,90.59
2018-06-09T07:37:26.147Z,90.44
2018-06-09T07:38:26.162Z,90.93
2018-06-09T07:39:26.168Z,90.16
2018-06-09T07:40:26.176Z,90.83
2018-06-09T07:41:26.183Z,89.37
2018-06-09T07:42:26.190Z,88.99
2018-06-09T07:43:26.207Z,88.99
2018-06-09T07:44:26.209Z,88.75
2018-06-09T07:45:26.213Z,89.62
2018-06-09T07:46:26.221Z,89.29
2018-06-09T07:47:26.227Z,90.70
2018-06-09T07:48:26.261Z,91.28
2018-06-09T07:49:26.246Z,92.34
2018-06-09T07:50:26.243Z,91.96
2018-06-09T07:51:26.257Z,89.86
2018-06-09T07:52:26.260Z,85.14
2018-06-09T07:53:26.270Z,81.38
2018-06-09T07:54:26.277Z,79.76
2018-06-09T07:55:26.275Z,78.94
2018-06-09T07:56:26.287Z,80.54
2018-06-09T07:57:26.294Z,83.70
2018-06-09T07:58:26.303Z,84.77
2018-06-09T07:59:26.308Z,85.29
2018-06-09T08:00:26.329Z,85.83
2018-06-09T08:01:26.329Z,85.19
2018-06-09T08:02:26.336Z,81.92
2018-06-09T08:03:26.347Z,82.65
2018-06-09T08:04:26.355Z,80.69
2018-06-09T08:05:26.367Z,78.79
2018-06-09T08:06:26.376Z,77.72
2018-06-09T08:07:26.384Z,78.11
2018-06-09T08:08:26.388Z,79.00
2018-06-09T08:09:26.406Z,81.10
2018-06-09T08:10:26.410Z,78.59
2018-06-09T08:11:26.420Z,76.14
2018-06-09T08:12:26.435Z,74.52
2018-06-09T08:13:26.443Z,73.80
2018-06-09T08:14:26.455Z,74.13
2018-06-09T08:15:26.487Z,76.94
2018-06-09T08:16:26.477Z,80.76
2018-06-09T08:17:26.484Z,80.11
2018-06-09T08:18:26.491Z,78.99
2018-06-09T08:19:26.509Z,75.16
2018-06-09T08:20:26.515Z,74.90
2018-06-09T08:21:26.527Z,75.58
2018-06-09T08:22:26.540Z,75.75
2018-06-09T08:23:26.557Z,74.98
2018-06-09T08:24:26.608Z,75.14
2018-06-09T08:25:26.602Z,76.68
2018-06-09T08:26:26.586Z,77.91
2018-06-09T08:27:26.606Z,76.73
2018-06-09T08:28:26.622Z,72.74
2018-06-09T08:29:26.628Z,75.36
2018-06-09T08:30:26.671Z,76.30
2018-06-09T08:31:26.659Z,76.01
2018-06-09T08:32:26.670Z,76.14
2018-06-09T08:33:26.681Z,75.20
2018-06-09T08:34:26.719Z,74.86
2018-06-09T08:35:26.706Z,77.55
2018-06-09T08:36:26.759Z,80.17
2018-06-09T08:37:26.722Z,81.78
2018-06-09T08:38:26.733Z,81.90
2018-06-09T08:39:26.770Z,82.38
2018-06-09T08:40:26.769Z,81.65
2018-06-09T08:41:26.775Z,80.07
2018-06-09T08:42:26.791Z,78.17
2018-06-09T08:43:26.797Z,79.88
2018-06-09T08:44:26.814Z,79.45
2018-06-09T08:45:26.822Z,77.43
2018-06-09T08:46:26.880Z,75.69
2018-06-09T08:47:26.841Z,73.23
2018-06-09T08:48:26.852Z,69.26
2018-06-09T08:49:26.863Z,71.45
2018-06-09T08:50:26.882Z,70.37
2018-06-09T08:51:26.914Z,69.88
2018-06-09T08:52:26.906Z,71.18
2018-06-09T08:53:26.964Z,70.57
2018-06-09T08:54:26.943Z,70.12
2018-06-09T08:55:26.939Z,68.26
2018-06-09T08:56:26.953Z,68.36
2018-06-09T08:57:26.962Z,68.88
2018-06-09T08:58:26.991Z,65.33
2018-06-09T08:59:27.001Z,64.61
2018-06-09T09:00:27.011Z,63.66
2018-06-09T09:01:27.051Z,63.31
2018-06-09T09:02:27.044Z,65.75
2018-06-09T09:03:27.062Z,67.54
2018-06-09T09:04:27.098Z,68.85
2018-06-09T09:05:27.108Z,70.50
2018-06-09T09:06:27.111Z,70.86
2018-06-09T09:07:27.122Z,69.30
2018-06-09T09:08:27.138Z,65.06
2018-06-09T09:09:27.176Z,61.60
2018-06-09T09:10:27.158Z,61.74
2018-06-09T09:11:27.184Z,65.53
2018-06-09T09:12:27.205Z,65.23
2018-06-09T09:13:27.266Z,61.31
2018-06-09T09:14:27.237Z,59.92
2018-06-09T09:15:27.248Z,58.79
2018-06-09T09:16:27.301Z,60.00
2018-06-09T09:17:27.292Z,60.39
2018-06-09T09:18:27.299Z,61.37
2018-06-09T09:19:27.310Z,63.99
2018-06-09T09:20:27.327Z,65.14
2018-06-09T09:21:27.335Z,67.93
2018-06-09T09:22:27.359Z,63.67
2018-06-09T09:23:27.381Z,63.76
2018-06-09T09:24:27.400Z,64.74
2018-06-09T09:25:27.404Z,66.50
2018-06-09T09:26:27.421Z,68.59
2018-06-09T09:27:27.458Z,66.86
2018-06-09T09:28:27.471Z,69.65
2018-06-09T09:29:27.460Z,72.92
2018-06-09T09:30:27.485Z,74.74
2018-06-09T09:31:27.497Z,73.25
2018-06-09T09:32:27.500Z,70.66
2018-06-09T09:33:27.518Z,71.56
2018-06-09T09:34:27.524Z,72.80
2018-06-09T09:35:27.557Z,73.63
2018-06-09T09:36:27.579Z,73.73
2018-06-09T09:37:27.569Z,74.41
2018-06-09T09:38:27.583Z,74.99
2018-06-09T09:39:27.594Z,76.81
2018-06-09T09:40:27.624Z,75.45
2018-06-09T09:41:27.609Z,74.67
2018-06-09T09:42:27.626Z,75.64
2018-06-09T09:43:27.636Z,76.12
2018-06-09T09:44:27.646Z,75.78
2018-06-09T09:45:28.238Z,72.61
2018-06-09T09:46:27.672Z,70.40
2018-06-09T09:47:27.702Z,69.17
2018-06-09T09:48:27.697Z,70.14
2018-06-09T09:49:27.714Z,72.44
2018-06-09T09:50:27.710Z,72.89
2018-06-09T09:51:28.238Z,73.28
2018-06-09T09:52:27.735Z,72.31
2018-06-09T09:53:27.740Z,70.40
2018-06-09T09:54:27.751Z,68.13
2018-06-09T09:55:27.762Z,67.25
2018-06-09T09:56:27.770Z,70.31
2018-06-09T09:57:27.784Z,68.87
2018-06-09T09:58:27.809Z,68.19
2018-06-09T09:59:27.818Z,70.98
2018-06-09T10:00:27.826Z,71.67
2018-06-09T10:01:27.894Z,65.14
2018-06-09T10:02:27.862Z,66.80
2018-06-09T10:03:27.870Z,68.23
2018-06-09T10:04:27.894Z,69.17
2018-06-09T10:05:27.907Z,71.08
2018-06-09T10:06:27.915Z,72.31
2018-06-09T10:07:27.932Z,74.45
2018-06-09T10:08:27.944Z,73.96
2018-06-09T10:09:27.958Z,73.71
2018-06-09T10:10:27.969Z,73.45
2018-06-09T10:11:27.973Z,71.80
2018-06-09T10:12:27.995Z,66.44
2018-06-09T10:13:28.054Z,63.44
2018-06-09T10:14:28.038Z,64.54
2018-06-09T10:15:28.031Z,64.32
2018-06-09T10:16:28.041Z,66.50
2018-06-09T10:17:28.059Z,63.99
2018-06-09T10:18:28.091Z,61.99
2018-06-09T10:19:28.090Z,62.06
2018-06-09T10:20:28.108Z,61.76
2018-06-09T10:21:28.123Z,60.29
2018-06-09T10:22:28.132Z,60.00
2018-06-09T10:23:28.152Z,61.57
2018-06-09T10:24:28.167Z,61.02
2018-06-09T10:25:28.183Z,58.07
2018-06-09T10:26:28.199Z,57.26
2018-06-09T10:27:28.223Z,61.99
2018-06-09T10:28:28.234Z,62.12
2018-06-09T10:29:28.250Z,59.67
2018-06-09T10:30:28.267Z,60.92
2018-06-09T10:31:28.275Z,59.19
2018-06-09T10:32:28.302Z,58.79
2018-06-09T10:33:28.317Z,59.75
2018-06-09T10:34:28.332Z,63.31
2018-06-09T10:35:28.350Z,66.05
2018-06-09T10:36:28.388Z,67.15
2018-06-09T10:37:28.383Z,68.39
2018-06-09T10:38:28.393Z,68.06
2018-06-09T10:39:28.405Z,68.35
2018-06-09T10:40:28.422Z,65.85
2018-06-09T10:41:28.440Z,65.81
2018-06-09T10:42:28.442Z,64.77
2018-06-09T10:43:28.459Z,64.38
2018-06-09T10:44:28.481Z,64.42
2018-06-09T10:45:28.511Z,63.70
2018-06-09T10:46:28.508Z,65.59
2018-06-09T10:47:28.520Z,64.90
2018-06-09T10:48:28.548Z,64.84
2018-06-09T10:49:28.554Z,65.46
2018-06-09T10:50:28.571Z,70.07
2018-06-09T10:51:28.583Z,67.74
2018-06-09T10:52:28.598Z,66.47
2018-06-09T10:53:28.616Z,66.63
2018-06-09T10:54:28.632Z,68.07
2018-06-09T10:55:28.636Z,63.43
2018-06-09T10:56:28.665Z,65.62
2018-06-09T10:57:28.730Z,60.06
2018-06-09T10:58:28.697Z,61.37
2018-06-09T10:59:28.712Z,60.94
2018-06-09T11:00:28.732Z,61.60
2018-06-09T11:01:28.751Z,58.30
2018-06-09T11:02:28.755Z,62.11
2018-06-09T11:03:28.780Z,69.01
2018-06-09T11:04:28.797Z,69.95
2018-06-09T11:05:28.816Z,65.65
2018-06-09T11:06:28.836Z,65.62
2018-06-09T11:07:28.853Z,61.96
2018-06-09T11:08:28.862Z,58.68
2018-06-09T11:09:28.889Z,60.49
2018-06-09T11:10:28.910Z,61.97
2018-06-09T11:11:28.918Z,64.68
2018-06-09T11:12:28.929Z,63.24
2018-06-09T11:13:28.948Z,61.73
2018-06-09T11:14:28.964Z,58.75
2018-06-09T11:15:28.981Z,54.36
2018-06-09T11:16:28.998Z,55.33
2018-06-09T11:17:29.018Z,56.75
2018-06-09T11:18:29.038Z,60.47
2018-06-09T11:19:29.055Z,64.12
2018-06-09T11:20:29.086Z,64.61
2018-06-09T11:21:29.086Z,64.64
2018-06-09T11:22:29.108Z,61.74
2018-06-09T11:23:29.123Z,62.33
2018-06-09T11:24:29.167Z,63.02
2018-06-09T11:25:29.168Z,65.72
2018-06-09T11:26:29.185Z,64.75
2018-06-09T11:27:29.189Z,66.27
2018-06-09T11:28:29.213Z,68.78
2018-06-09T11:29:29.227Z,64.03
2018-06-09T11:30:29.341Z,59.84
2018-06-09T11:31:29.268Z,59.61
2018-06-09T11:32:29.290Z,61.47
2018-06-09T11:33:29.301Z,58.81
2018-06-09T11:34:29.319Z,58.85
2018-06-09T11:35:29.343Z,59.52
2018-06-09T11:36:29.360Z,62.10
2018-06-09T11:37:29.374Z,62.03
2018-06-09T11:38:29.398Z,58.93
2018-06-09T11:39:29.415Z,58.75
2018-06-09T11:40:29.434Z,60.25
2018-06-09T11:41:29.444Z,64.48
2018-06-09T11:42:29.460Z,66.41
2018-06-09T11:43:29.490Z,66.05
2018-06-09T11:44:29.509Z,61.28
2018-06-09T11:45:29.524Z,60.55
2018-06-09T11:46:29.547Z,58.33
2018-06-09T11:47:29.553Z,60.23
2018-06-09T11:48:29.584Z,63.80
2018-06-09T11:49:29.599Z,64.75
2018-06-09T11:50:29.615Z,66.99
2018-06-09T11:51:29.638Z,71.44
2018-06-09T11:52:29.653Z,71.64
2018-06-09T11:53:29.667Z,72.19
2018-06-09T11:54:29.677Z,70.07
2018-06-09T11:55:29.696Z,66.17
2018-06-09T11:56:29.722Z,64.61
2018-06-09T11:57:29.725Z,62.82
2018-06-09T11:58:29.744Z,64.81
2018-06-09T11:59:29.755Z,70.01
2018-06-09T12:00:29.770Z,70.65
2018-06-09T12:01:29.785Z,69.88
2018-06-09T12:02:29.796Z,70.86
2018-06-09T12:03:29.809Z,65.88
2018-06-09T12:04:29.825Z,63.47
2018-06-09T12:05:29.878Z,61.64
2018-06-09T12:06:29.852Z,61.51
2018-06-09T12:07:29.858Z,61.24
2018-06-09T12:08:29.886Z,60.06
2018-06-09T12:09:29.901Z,58.95
2018-06-09T12:10:29.906Z,58.26
2018-06-09T12:11:29.924Z,54.88
2018-06-09T12:12:29.941Z,54.52
2018-06-09T12:13:29.953Z,52.82
2018-06-09T12:14:29.968Z,51.37
2018-06-09T12:15:29.989Z,50.93
2018-06-09T12:16:30.007Z,53.66
2018-06-09T12:17:30.023Z,52.97
2018-06-09T12:18:30.041Z,53.75
2018-06-09T12:19:30.056Z,52.99
2018-06-09T12:20:30.074Z,53.19
2018-06-09T12:21:30.096Z,53.67
2018-06-09T12:22:30.123Z,51.72
2018-06-09T12:23:30.129Z,55.81
2018-06-09T12:24:30.143Z,56.69
2018-06-09T12:25:30.162Z,55.43
2018-06-09T12:26:30.182Z,55.94
2018-06-09T12:27:30.196Z,58.92
2018-06-09T12:28:30.215Z,64.52
2018-06-09T12:29:30.236Z,63.15
2018-06-09T12:30:30.250Z,65.17
2018-06-09T12:31:30.268Z,64.56
2018-06-09T12:32:30.296Z,66.60
2018-06-09T12:33:30.299Z,68.35
2018-06-09T12:34:30.315Z,68.51
2018-06-09T12:35:30.332Z,72.30
2018-06-09T12:36:30.344Z,70.36
2018-06-09T12:37:30.361Z,73.08
2018-06-09T12:38:30.370Z,72.33
2018-06-09T12:39:30.387Z,70.00
2018-06-09T12:40:30.414Z,72.27
2018-06-09T12:41:30.410Z,70.13
2018-06-09T12:42:30.426Z,69.78
2018-06-09T12:43:30.438Z,70.07
2018-06-09T12:44:30.440Z,68.41
2018-06-09T12:45:30.457Z,71.56
2018-06-09T12:46:30.469Z,70.23
2018-06-09T12:47:30.477Z,69.07
2018-06-09T12:48:30.488Z,69.07
2018-06-09T12:49:30.497Z,67.83
2018-06-09T12:50:30.507Z,68.71
2018-06-09T12:51:30.525Z,67.64
2018-06-09T12:52:30.524Z,69.36
2018-06-09T12:53:30.533Z,66.14
2018-06-09T12:54:30.546Z,66.99
2018-06-09T12:55:30.551Z,66.24
2018-06-09T12:56:30.562Z,69.94
2018-06-09T12:57:30.560Z,72.37
2018-06-09T12:58:30.573Z,72.17
2018-06-09T12:59:30.575Z,72.27
2018-06-09T13:00:30.591Z,72.27
2018-06-09T13:01:30.599Z,74.22
2018-06-09T13:02:30.608Z,70.85
2018-06-09T13:03:30.618Z,71.37
2018-06-09T13:04:30.623Z,68.02
2018-06-09T13:05:30.630Z,66.47
2018-06-09T13:06:30.628Z,70.55
2018-06-09T13:07:30.644Z,72.88
2018-06-09T13:08:30.676Z,68.15
2018-06-09T13:09:30.657Z,72.37
2018-06-09T13:10:30.665Z,70.72
2018-06-09T13:11:30.673Z,71.40
2018-06-09T13:12:30.684Z,69.06
2018-06-09T13:13:30.683Z,69.84
2018-06-09T13:14:30.697Z,71.59
2018-06-09T13:15:30.697Z,70.07
2018-06-09T13:16:30.708Z,70.65
2018-06-09T13:17:30.716Z,68.90
2018-06-09T13:18:30.717Z,72.31
2018-06-09T13:19:30.733Z,68.80
2018-06-09T13:20:30.736Z,66.08
2018-06-09T13:21:30.736Z,70.04
2018-06-09T13:22:30.741Z,71.78
2018-06-09T13:23:30.755Z,69.71
2018-06-09T13:24:30.757Z,70.55
2018-06-09T13:25:30.763Z,75.89
2018-06-09T13:26:30.756Z,74.11
2018-06-09T13:27:30.773Z,74.01
2018-06-09T13:28:30.778Z,72.03
2018-06-09T13:29:30.782Z,77.08
2018-06-09T13:30:30.788Z,76.31
2018-06-09T13:31:30.793Z,73.62
2018-06-09T13:32:30.795Z,71.58
2018-06-09T13:33:30.810Z,74.60
2018-06-09T13:34:30.808Z,75.57
2018-06-09T13:35:30.817Z,73.62
2018-06-09T13:36:30.822Z,74.98
2018-06-09T13:37:30.824Z,75.82
2018-06-09T13:38:30.831Z,75.78
2018-06-09T13:39:30.840Z,72.67
2018-06-09T13:40:30.839Z,72.49
2018-06-09T13:41:30.851Z,75.26
2018-06-09T13:42:30.851Z,77.29
2018-06-09T13:43:30.857Z,76.00
2018-06-09T13:44:30.865Z,75.13
2018-06-09T13:45:30.865Z,76.42
2018-06-09T13:46:30.866Z,78.17
2018-06-09T13:47:30.889Z,79.97
2018-06-09T13:48:30.878Z,77.26
2018-06-09T13:49:30.881Z,78.52
2018-06-09T13:50:30.888Z,78.61
2018-06-09T13:51:30.891Z,78.61
2018-06-09T13:52:30.896Z,76.91
2018-06-09T13:53:30.898Z,76.72
2018-06-09T13:54:30.929Z,76.91